sensor_id;sensor_type;location;lat;lon;timestamp;pressure;altitude;pressure_sealevel;temperature;humidity
22031;BME280;11179;52.106;21.024;2023-08-20T00:02:23;100721.78;;;20.49;76.47
22031;BME280;11179;52.106;21.024;2023-08-20T00:04:48;100722.53;;;20.40;76.68
22031;BME280;11179;52.106;21.024;2023-08-20T00:07:15;100727.47;;;20.44;77.02
22031;BME280;11179;52.106;21.024;2023-08-20T00:09:43;100720.75;;;20.45;77.05
22031;BME280;11179;52.106;21.024;2023-08-20T00:12:08;100721.38;;;20.42;76.67
22031;BME280;11179;52.106;21.024;2023-08-20T00:15:06;100717.25;;;20.39;77.03
22031;BME280;11179;52.106;21.024;2023-08-20T00:17:32;100712.50;;;20.39;76.94
22031;BME280;11179;52.106;21.024;2023-08-20T00:19:58;100719.22;;;20.38;77.06
22031;BME280;11179;52.106;21.024;2023-08-20T00:22:25;100716.44;;;20.38;77.09
22031;BME280;11179;52.106;21.024;2023-08-20T00:24:52;100715.44;;;20.34;77.19
22031;BME280;11179;52.106;21.024;2023-08-20T00:27:18;100718.75;;;20.36;77.21
22031;BME280;11179;52.106;21.024;2023-08-20T00:29:43;100722.16;;;20.33;76.99
22031;BME280;11179;52.106;21.024;2023-08-20T00:32:09;100715.03;;;20.27;76.85
22031;BME280;11179;52.106;21.024;2023-08-20T00:34:34;100714.41;;;20.30;77.04
22031;BME280;11179;52.106;21.024;2023-08-20T00:37:00;100705.66;;;20.23;77.26
22031;BME280;11179;52.106;21.024;2023-08-20T00:39:26;100722.88;;;20.25;77.11
22031;BME280;11179;52.106;21.024;2023-08-20T00:41:51;100716.00;;;20.23;77.05
22031;BME280;11179;52.106;21.024;2023-08-20T00:44:17;100710.72;;;20.21;77.04
22031;BME280;11179;52.106;21.024;2023-08-20T00:46:42;100711.88;;;20.20;77.13
22031;BME280;11179;52.106;21.024;2023-08-20T00:49:08;100705.25;;;20.16;77.16
22031;BME280;11179;52.106;21.024;2023-08-20T00:51:34;100713.00;;;20.19;77.02
22031;BME280;11179;52.106;21.024;2023-08-20T00:54:00;100714.13;;;20.18;77.22
22031;BME280;11179;52.106;21.024;2023-08-20T00:56:26;100712.78;;;20.16;77.34
22031;BME280;11179;52.106;21.024;2023-08-20T00:58:53;100713.09;;;20.14;77.44
22031;BME280;11179;52.106;21.024;2023-08-20T01:01:20;100716.22;;;20.13;77.39
22031;BME280;11179;52.106;21.024;2023-08-20T01:03:45;100713.25;;;20.09;77.20
22031;BME280;11179;52.106;21.024;2023-08-20T01:06:23;100715.22;;;20.09;77.41
22031;BME280;11179;52.106;21.024;2023-08-20T01:09:00;100709.13;;;20.07;76.95
22031;BME280;11179;52.106;21.024;2023-08-20T01:11:31;100716.34;;;20.08;77.04
22031;BME280;11179;52.106;21.024;2023-08-20T01:13:58;100707.25;;;20.02;77.19
22031;BME280;11179;52.106;21.024;2023-08-20T01:16:23;100713.88;;;20.06;77.10
22031;BME280;11179;52.106;21.024;2023-08-20T01:18:49;100717.78;;;20.05;77.27
22031;BME280;11179;52.106;21.024;2023-08-20T01:21:37;100701.16;;;20.00;77.41
22031;BME280;11179;52.106;21.024;2023-08-20T01:24:22;100703.41;;;19.98;77.53
22031;BME280;11179;52.106;21.024;2023-08-20T01:27:17;100698.78;;;19.93;77.15
22031;BME280;11179;52.106;21.024;2023-08-20T01:29:45;100697.13;;;19.92;77.24
22031;BME280;11179;52.106;21.024;2023-08-20T01:32:11;100705.81;;;19.91;77.23
22031;BME280;11179;52.106;21.024;2023-08-20T01:34:37;100713.34;;;19.90;77.10
22031;BME280;11179;52.106;21.024;2023-08-20T01:37:03;100710.03;;;19.88;77.36
22031;BME280;11179;52.106;21.024;2023-08-20T01:39:28;100710.34;;;19.87;77.46
22031;BME280;11179;52.106;21.024;2023-08-20T01:41:53;100704.59;;;19.83;77.07
22031;BME280;11179;52.106;21.024;2023-08-20T01:44:19;100711.31;;;19.82;77.38
22031;BME280;11179;52.106;21.024;2023-08-20T01:46:44;100708.31;;;19.79;77.31
22031;BME280;11179;52.106;21.024;2023-08-20T01:49:09;100705.84;;;19.77;77.07
22031;BME280;11179;52.106;21.024;2023-08-20T01:51:52;100705.84;;;19.77;77.30
22031;BME280;11179;52.106;21.024;2023-08-20T01:54:22;100716.66;;;19.79;77.62
22031;BME280;11179;52.106;21.024;2023-08-20T02:00:00;100715.94;;;19.73;77.38
22031;BME280;11179;52.106;21.024;2023-08-20T02:02:30;100691.19;;;19.58;77.23
22031;BME280;11179;52.106;21.024;2023-08-20T02:05:03;100668.44;;;19.42;77.39
22031;BME280;11179;52.106;21.024;2023-08-20T02:07:49;100666.66;;;19.32;77.64
22031;BME280;11179;52.106;21.024;2023-08-20T02:10:16;100662.34;;;19.26;77.29
22031;BME280;11179;52.106;21.024;2023-08-20T02:12:50;100677.38;;;19.25;77.68
22031;BME280;11179;52.106;21.024;2023-08-20T02:15:19;100681.09;;;19.21;77.70
22031;BME280;11179;52.106;21.024;2023-08-20T02:18:00;100723.47;;;19.45;77.62
22031;BME280;11179;52.106;21.024;2023-08-20T02:20:33;100693.38;;;19.33;77.71
22031;BME280;11179;52.106;21.024;2023-08-20T02:23:02;100671.31;;;19.23;77.88
22031;BME280;11179;52.106;21.024;2023-08-20T02:25:47;100690.50;;;19.39;77.82
22031;BME280;11179;52.106;21.024;2023-08-20T02:31:16;100676.34;;;19.21;77.97
22031;BME280;11179;52.106;21.024;2023-08-20T02:33:58;100702.66;;;19.29;77.98
22031;BME280;11179;52.106;21.024;2023-08-20T02:36:42;100700.19;;;19.27;78.31
22031;BME280;11179;52.106;21.024;2023-08-20T02:39:15;100674.03;;;19.10;78.31
22031;BME280;11179;52.106;21.024;2023-08-20T02:45:12;100711.41;;;19.36;78.87
22031;BME280;11179;52.106;21.024;2023-08-20T02:47:53;100682.91;;;19.12;78.64
22031;BME280;11179;52.106;21.024;2023-08-20T02:50:44;100671.47;;;19.13;78.65
22031;BME280;11179;52.106;21.024;2023-08-20T02:53:14;100668.41;;;19.15;78.75
22031;BME280;11179;52.106;21.024;2023-08-20T02:55:53;100726.69;;;19.52;78.76
22031;BME280;11179;52.106;21.024;2023-08-20T02:58:48;100663.13;;;19.13;78.93
22031;BME280;11179;52.106;21.024;2023-08-20T03:01:29;100701.72;;;19.33;79.18
22031;BME280;11179;52.106;21.024;2023-08-20T03:04:04;100660.44;;;19.08;78.95
22031;BME280;11179;52.106;21.024;2023-08-20T03:06:42;100665.69;;;19.10;78.97
22031;BME280;11179;52.106;21.024;2023-08-20T03:09:09;100701.53;;;19.30;78.91
22031;BME280;11179;52.106;21.024;2023-08-20T03:11:35;100689.97;;;19.23;78.67
22031;BME280;11179;52.106;21.024;2023-08-20T03:14:01;100722.16;;;19.43;78.64
22031;BME280;11179;52.106;21.024;2023-08-20T03:16:26;100729.69;;;19.42;78.72
22031;BME280;11179;52.106;21.024;2023-08-20T03:18:51;100723.59;;;19.40;78.98
22031;BME280;11179;52.106;21.024;2023-08-20T03:21:16;100720.81;;;19.40;78.70
22031;BME280;11179;52.106;21.024;2023-08-20T03:23:42;100725.56;;;19.40;78.92
22031;BME280;11179;52.106;21.024;2023-08-20T03:26:07;100718.56;;;19.42;78.75
22031;BME280;11179;52.106;21.024;2023-08-20T03:28:32;100727.72;;;19.43;79.07
22031;BME280;11179;52.106;21.024;2023-08-20T03:34:30;100716.78;;;19.32;78.44
22031;BME280;11179;52.106;21.024;2023-08-20T03:36:55;100700.50;;;19.26;78.63
22031;BME280;11179;52.106;21.024;2023-08-20T03:39:33;100734.63;;;19.45;78.30
22031;BME280;11179;52.106;21.024;2023-08-20T03:41:58;100678.69;;;19.14;78.54
22031;BME280;11179;52.106;21.024;2023-08-20T03:44:25;100675.41;;;19.12;78.28
22031;BME280;11179;52.106;21.024;2023-08-20T03:46:52;100680.56;;;19.19;78.23
22031;BME280;11179;52.106;21.024;2023-08-20T03:49:18;100707.50;;;19.37;78.32
22031;BME280;11179;52.106;21.024;2023-08-20T03:51:43;100734.44;;;19.55;78.19
22031;BME280;11179;52.106;21.024;2023-08-20T03:54:09;100724.75;;;19.53;78.19
22031;BME280;11179;52.106;21.024;2023-08-20T03:56:34;100730.41;;;19.61;78.14
22031;BME280;11179;52.106;21.024;2023-08-20T03:59:00;100735.88;;;19.66;78.06
22031;BME280;11179;52.106;21.024;2023-08-20T04:01:25;100734.91;;;19.71;77.89
22031;BME280;11179;52.106;21.024;2023-08-20T04:03:57;100734.53;;;19.78;77.90
22031;BME280;11179;52.106;21.024;2023-08-20T04:06:23;100736.78;;;19.89;78.09
22031;BME280;11179;52.106;21.024;2023-08-20T04:08:51;100712.00;;;19.88;78.32
22031;BME280;11179;52.106;21.024;2023-08-20T04:11:16;100692.91;;;19.95;78.42
22031;BME280;11179;52.106;21.024;2023-08-20T04:13:42;100735.31;;;20.42;78.69
22031;BME280;11179;52.106;21.024;2023-08-20T04:16:09;100724.63;;;20.57;79.01
22031;BME280;11179;52.106;21.024;2023-08-20T04:18:34;100736.50;;;20.85;79.20
22031;BME280;11179;52.106;21.024;2023-08-20T04:21:00;100736.78;;;21.06;78.86
22031;BME280;11179;52.106;21.024;2023-08-20T04:23:25;100739.06;;;21.26;78.87
22031;BME280;11179;52.106;21.024;2023-08-20T04:25:50;100734.84;;;21.46;77.60
22031;BME280;11179;52.106;21.024;2023-08-20T04:28:16;100744.50;;;21.71;77.02
22031;BME280;11179;52.106;21.024;2023-08-20T04:30:41;100731.22;;;21.85;76.54
22031;BME280;11179;52.106;21.024;2023-08-20T04:33:07;100742.97;;;22.13;76.14
22031;BME280;11179;52.106;21.024;2023-08-20T04:36:05;100741.88;;;22.40;74.97
22031;BME280;11179;52.106;21.024;2023-08-20T04:38:42;100744.97;;;22.64;74.04
22031;BME280;11179;52.106;21.024;2023-08-20T04:41:07;100708.78;;;22.68;73.68
22031;BME280;11179;52.106;21.024;2023-08-20T04:43:33;100700.66;;;22.92;72.54
22031;BME280;11179;52.106;21.024;2023-08-20T04:45:58;100701.63;;;23.13;72.15
22031;BME280;11179;52.106;21.024;2023-08-20T04:48:26;100711.41;;;23.37;71.08
22031;BME280;11179;52.106;21.024;2023-08-20T04:50:52;100745.00;;;23.83;70.28
22031;BME280;11179;52.106;21.024;2023-08-20T04:53:17;100713.16;;;23.88;69.47
22031;BME280;11179;52.106;21.024;2023-08-20T04:55:45;100741.28;;;24.30;69.02
22031;BME280;11179;52.106;21.024;2023-08-20T04:58:11;100715.47;;;24.36;68.05
22031;BME280;11179;52.106;21.024;2023-08-20T05:00:36;100740.22;;;24.76;67.30
22031;BME280;11179;52.106;21.024;2023-08-20T05:03:01;100746.78;;;25.01;66.84
22031;BME280;11179;52.106;21.024;2023-08-20T05:05:27;100745.66;;;25.26;66.39
22031;BME280;11179;52.106;21.024;2023-08-20T05:07:52;100744.19;;;25.53;65.04
22031;BME280;11179;52.106;21.024;2023-08-20T05:10:17;100740.94;;;25.75;64.23
22031;BME280;11179;52.106;21.024;2023-08-20T05:12:43;100742.09;;;25.98;63.73
22031;BME280;11179;52.106;21.024;2023-08-20T05:15:08;100738.47;;;26.22;62.79
22031;BME280;11179;52.106;21.024;2023-08-20T05:17:34;100738.13;;;26.52;61.87
22031;BME280;11179;52.106;21.024;2023-08-20T05:19:59;100742.75;;;26.72;61.43
22031;BME280;11179;52.106;21.024;2023-08-20T05:22:24;100745.72;;;26.91;60.87
22031;BME280;11179;52.106;21.024;2023-08-20T05:24:50;100749.34;;;27.20;60.19
22031;BME280;11179;52.106;21.024;2023-08-20T05:27:16;100763.75;;;27.46;59.80
22031;BME280;11179;52.106;21.024;2023-08-20T05:29:44;100765.03;;;27.64;59.03
22031;BME280;11179;52.106;21.024;2023-08-20T05:32:10;100759.84;;;27.82;58.81
22031;BME280;11179;52.106;21.024;2023-08-20T05:34:35;100768.59;;;28.08;58.06
22031;BME280;11179;52.106;21.024;2023-08-20T05:37:21;100769.81;;;28.27;56.59
22031;BME280;11179;52.106;21.024;2023-08-20T05:39:47;100767.38;;;28.44;57.00
22031;BME280;11179;52.106;21.024;2023-08-20T05:42:13;100761.41;;;28.65;56.55
22031;BME280;11179;52.106;21.024;2023-08-20T05:44:38;100767.56;;;28.90;55.45
22031;BME280;11179;52.106;21.024;2023-08-20T05:47:04;100754.06;;;29.03;55.21
22031;BME280;11179;52.106;21.024;2023-08-20T05:49:31;100742.47;;;29.08;54.76
22031;BME280;11179;52.106;21.024;2023-08-20T05:51:58;100743.34;;;29.31;53.98
22031;BME280;11179;52.106;21.024;2023-08-20T05:54:28;100712.34;;;29.38;53.34
22031;BME280;11179;52.106;21.024;2023-08-20T05:56:57;100735.38;;;29.82;52.83
22031;BME280;11179;52.106;21.024;2023-08-20T05:59:25;100749.63;;;30.16;52.48
22031;BME280;11179;52.106;21.024;2023-08-20T06:01:53;100710.41;;;30.18;51.70
22031;BME280;11179;52.106;21.024;2023-08-20T06:04:26;100748.13;;;30.52;51.30
22031;BME280;11179;52.106;21.024;2023-08-20T06:06:52;100718.56;;;30.53;50.96
22031;BME280;11179;52.106;21.024;2023-08-20T06:09:19;100740.38;;;30.79;50.21
22031;BME280;11179;52.106;21.024;2023-08-20T06:11:45;100739.22;;;30.83;49.81
22031;BME280;11179;52.106;21.024;2023-08-20T06:14:17;100746.03;;;30.75;50.04
22031;BME280;11179;52.106;21.024;2023-08-20T06:16:43;100719.72;;;30.78;49.77
22031;BME280;11179;52.106;21.024;2023-08-20T06:19:10;100751.50;;;31.28;49.37
22031;BME280;11179;52.106;21.024;2023-08-20T06:21:36;100745.66;;;31.54;48.61
22031;BME280;11179;52.106;21.024;2023-08-20T06:24:02;100713.16;;;31.48;48.75
22031;BME280;11179;52.106;21.024;2023-08-20T06:26:32;100709.72;;;31.73;47.97
22031;BME280;11179;52.106;21.024;2023-08-20T06:28:58;100709.09;;;31.93;47.30
22031;BME280;11179;52.106;21.024;2023-08-20T06:31:29;100743.50;;;32.43;46.85
22031;BME280;11179;52.106;21.024;2023-08-20T06:33:55;100753.75;;;32.69;46.53
22031;BME280;11179;52.106;21.024;2023-08-20T06:36:20;100755.09;;;32.96;46.20
22031;BME280;11179;52.106;21.024;2023-08-20T06:38:46;100744.19;;;33.20;45.78
22031;BME280;11179;52.106;21.024;2023-08-20T06:41:14;100743.41;;;33.30;44.50
22031;BME280;11179;52.106;21.024;2023-08-20T06:43:39;100754.41;;;33.46;45.04
22031;BME280;11179;52.106;21.024;2023-08-20T06:46:15;100762.16;;;33.52;44.03
22031;BME280;11179;52.106;21.024;2023-08-20T06:48:41;100759.28;;;33.45;43.74
22031;BME280;11179;52.106;21.024;2023-08-20T06:51:23;100723.47;;;33.30;43.61
22031;BME280;11179;52.106;21.024;2023-08-20T06:53:57;100749.97;;;33.77;43.09
22031;BME280;11179;52.106;21.024;2023-08-20T06:56:26;100724.34;;;33.80;43.27
22031;BME280;11179;52.106;21.024;2023-08-20T06:58:56;100745.06;;;34.02;42.58
22031;BME280;11179;52.106;21.024;2023-08-20T07:01:22;100736.50;;;34.05;42.64
22031;BME280;11179;52.106;21.024;2023-08-20T07:03:48;100763.34;;;34.29;42.25
22031;BME280;11179;52.106;21.024;2023-08-20T07:06:13;100771.50;;;34.27;41.46
22031;BME280;11179;52.106;21.024;2023-08-20T07:08:43;100780.88;;;34.35;41.75
22031;BME280;11179;52.106;21.024;2023-08-20T07:11:09;100784.44;;;34.57;42.76
22031;BME280;11179;52.106;21.024;2023-08-20T07:13:34;100777.91;;;34.70;42.28
22031;BME280;11179;52.106;21.024;2023-08-20T07:16:00;100780.59;;;35.02;41.96
22031;BME280;11179;52.106;21.024;2023-08-20T07:18:25;100778.19;;;35.01;41.25
22031;BME280;11179;52.106;21.024;2023-08-20T07:20:51;100776.97;;;34.95;40.45
22031;BME280;11179;52.106;21.024;2023-08-20T07:23:17;100778.19;;;34.97;40.09
22031;BME280;11179;52.106;21.024;2023-08-20T07:25:42;100777.28;;;35.15;39.80
22031;BME280;11179;52.106;21.024;2023-08-20T07:28:10;100784.13;;;35.31;40.00
22031;BME280;11179;52.106;21.024;2023-08-20T07:30:35;100774.97;;;35.58;40.02
22031;BME280;11179;52.106;21.024;2023-08-20T07:33:02;100773.66;;;35.73;39.19
22031;BME280;11179;52.106;21.024;2023-08-20T07:35:27;100777.63;;;35.86;39.16
22031;BME280;11179;52.106;21.024;2023-08-20T07:37:53;100781.16;;;36.01;38.85
22031;BME280;11179;52.106;21.024;2023-08-20T07:40:18;100784.28;;;36.21;38.56
22031;BME280;11179;52.106;21.024;2023-08-20T07:42:47;100790.97;;;36.00;38.13
22031;BME280;11179;52.106;21.024;2023-08-20T07:45:12;100787.66;;;36.05;38.56
22031;BME280;11179;52.106;21.024;2023-08-20T07:47:38;100783.75;;;36.29;37.88
22031;BME280;11179;52.106;21.024;2023-08-20T07:50:04;100792.56;;;36.45;37.01
22031;BME280;11179;52.106;21.024;2023-08-20T07:52:40;100787.13;;;36.62;36.48
22031;BME280;11179;52.106;21.024;2023-08-20T07:55:07;100782.50;;;36.71;36.80
22031;BME280;11179;52.106;21.024;2023-08-20T07:57:34;100780.34;;;36.79;35.90
22031;BME280;11179;52.106;21.024;2023-08-20T07:59:59;100787.53;;;36.91;35.28
22031;BME280;11179;52.106;21.024;2023-08-20T08:02:24;100774.53;;;36.86;35.08
22031;BME280;11179;52.106;21.024;2023-08-20T08:04:52;100765.44;;;36.91;35.21
22031;BME280;11179;52.106;21.024;2023-08-20T08:07:27;100724.19;;;36.62;35.30
22031;BME280;11179;52.106;21.024;2023-08-20T08:10:02;100733.81;;;36.75;34.62
22031;BME280;11179;52.106;21.024;2023-08-20T08:12:28;100751.91;;;36.65;35.14
22031;BME280;11179;52.106;21.024;2023-08-20T08:14:53;100775.19;;;37.01;35.24
22031;BME280;11179;52.106;21.024;2023-08-20T08:17:18;100773.03;;;37.08;35.16
22031;BME280;11179;52.106;21.024;2023-08-20T08:19:44;100782.69;;;37.18;34.93
22031;BME280;11179;52.106;21.024;2023-08-20T08:22:09;100780.59;;;37.22;34.62
22031;BME280;11179;52.106;21.024;2023-08-20T08:24:35;100774.09;;;37.18;34.76
22031;BME280;11179;52.106;21.024;2023-08-20T08:27:00;100763.75;;;36.97;34.37
22031;BME280;11179;52.106;21.024;2023-08-20T08:29:25;100771.88;;;37.02;34.69
22031;BME280;11179;52.106;21.024;2023-08-20T08:31:51;100770.75;;;37.23;34.51
22031;BME280;11179;52.106;21.024;2023-08-20T08:34:16;100770.22;;;37.32;34.21
22031;BME280;11179;52.106;21.024;2023-08-20T08:36:42;100773.75;;;37.43;33.96
22031;BME280;11179;52.106;21.024;2023-08-20T08:39:07;100773.66;;;37.50;34.00
22031;BME280;11179;52.106;21.024;2023-08-20T08:41:35;100772.88;;;37.46;33.92
22031;BME280;11179;52.106;21.024;2023-08-20T08:44:03;100774.88;;;37.49;33.87
22031;BME280;11179;52.106;21.024;2023-08-20T08:46:29;100787.13;;;37.23;33.89
22031;BME280;11179;52.106;21.024;2023-08-20T08:48:55;100782.25;;;37.19;33.94
22031;BME280;11179;52.106;21.024;2023-08-20T08:51:23;100766.09;;;37.33;34.08
22031;BME280;11179;52.106;21.024;2023-08-20T08:53:49;100769.50;;;37.54;34.33
22031;BME280;11179;52.106;21.024;2023-08-20T08:56:14;100774.94;;;37.45;34.25
22031;BME280;11179;52.106;21.024;2023-08-20T08:58:40;100788.53;;;37.38;33.44
22031;BME280;11179;52.106;21.024;2023-08-20T09:01:05;100783.28;;;37.33;33.26
22031;BME280;11179;52.106;21.024;2023-08-20T09:03:31;100783.97;;;37.44;33.45
22031;BME280;11179;52.106;21.024;2023-08-20T09:05:59;100774.34;;;37.58;33.54
22031;BME280;11179;52.106;21.024;2023-08-20T09:08:30;100776.53;;;37.73;33.18
22031;BME280;11179;52.106;21.024;2023-08-20T09:10:57;100774.84;;;37.76;32.69
22031;BME280;11179;52.106;21.024;2023-08-20T09:13:32;100781.63;;;37.62;33.07
22031;BME280;11179;52.106;21.024;2023-08-20T09:15:58;100780.88;;;37.58;33.10
22031;BME280;11179;52.106;21.024;2023-08-20T09:18:23;100767.16;;;37.46;32.91
22031;BME280;11179;52.106;21.024;2023-08-20T09:20:49;100770.56;;;37.64;32.52
22031;BME280;11179;52.106;21.024;2023-08-20T09:23:24;100775.78;;;37.69;32.33
22031;BME280;11179;52.106;21.024;2023-08-20T09:26:07;100776.47;;;37.77;32.35
22031;BME280;11179;52.106;21.024;2023-08-20T09:28:48;100727.81;;;37.50;32.46
22031;BME280;11179;52.106;21.024;2023-08-20T09:31:20;100760.28;;;37.67;32.04
22031;BME280;11179;52.106;21.024;2023-08-20T09:33:55;100724.78;;;37.34;31.51
22031;BME280;11179;52.106;21.024;2023-08-20T09:36:33;100721.16;;;37.30;31.37
22031;BME280;11179;52.106;21.024;2023-08-20T09:39:03;100724.69;;;37.41;31.90
22031;BME280;11179;52.106;21.024;2023-08-20T09:41:44;100725.50;;;37.41;32.10
22031;BME280;11179;52.106;21.024;2023-08-20T09:44:15;100722.09;;;37.50;31.97
22031;BME280;11179;52.106;21.024;2023-08-20T09:46:43;100748.41;;;37.68;31.71
22031;BME280;11179;52.106;21.024;2023-08-20T09:49:15;100724.28;;;37.66;32.41
22031;BME280;11179;52.106;21.024;2023-08-20T09:51:45;100734.94;;;37.65;31.47
22031;BME280;11179;52.106;21.024;2023-08-20T09:54:28;100722.13;;;37.46;31.39
22031;BME280;11179;52.106;21.024;2023-08-20T09:57:05;100752.31;;;37.54;31.72
22031;BME280;11179;52.106;21.024;2023-08-20T10:02:40;100709.56;;;37.13;31.99
22031;BME280;11179;52.106;21.024;2023-08-20T10:05:07;100736.94;;;37.41;32.16
22031;BME280;11179;52.106;21.024;2023-08-20T10:07:33;100743.00;;;37.47;31.76
22031;BME280;11179;52.106;21.024;2023-08-20T10:10:03;100742.81;;;37.31;31.97
22031;BME280;11179;52.106;21.024;2023-08-20T10:12:42;100738.41;;;37.26;31.80
22031;BME280;11179;52.106;21.024;2023-08-20T10:15:37;100691.03;;;36.91;31.56
22031;BME280;11179;52.106;21.024;2023-08-20T10:18:10;100691.03;;;36.64;32.44
22031;BME280;11179;52.106;21.024;2023-08-20T10:20:41;100712.59;;;36.72;32.29
22031;BME280;11179;52.106;21.024;2023-08-20T10:23:19;100727.56;;;36.83;32.27
22031;BME280;11179;52.106;21.024;2023-08-20T10:25:58;100681.16;;;36.69;32.21
22031;BME280;11179;52.106;21.024;2023-08-20T10:28:32;100713.41;;;36.73;31.40
22031;BME280;11179;52.106;21.024;2023-08-20T10:33:33;100709.00;;;36.65;31.66
22031;BME280;11179;52.106;21.024;2023-08-20T10:36:06;100723.25;;;36.68;32.17
22031;BME280;11179;52.106;21.024;2023-08-20T10:38:36;100721.69;;;36.64;31.67
22031;BME280;11179;52.106;21.024;2023-08-20T10:41:06;100713.47;;;36.66;32.08
22031;BME280;11179;52.106;21.024;2023-08-20T10:43:38;100725.59;;;36.77;31.97
22031;BME280;11179;52.106;21.024;2023-08-20T10:46:17;100734.56;;;36.79;31.39
22031;BME280;11179;52.106;21.024;2023-08-20T10:48:56;100728.44;;;36.77;31.69
22031;BME280;11179;52.106;21.024;2023-08-20T10:51:26;100723.59;;;36.74;31.68
22031;BME280;11179;52.106;21.024;2023-08-20T10:56:47;100724.41;;;36.40;32.28
22031;BME280;11179;52.106;21.024;2023-08-20T10:59:36;100691.88;;;36.27;32.39
22031;BME280;11179;52.106;21.024;2023-08-20T11:02:10;100666.56;;;36.26;31.92
22031;BME280;11179;52.106;21.024;2023-08-20T11:04:53;100729.00;;;36.31;31.76
22031;BME280;11179;52.106;21.024;2023-08-20T11:07:29;100731.91;;;36.27;32.06
22031;BME280;11179;52.106;21.024;2023-08-20T11:10:01;100666.38;;;35.68;32.30
22031;BME280;11179;52.106;21.024;2023-08-20T11:12:48;100719.84;;;36.09;32.77
22031;BME280;11179;52.106;21.024;2023-08-20T11:15:32;100677.22;;;35.84;32.98
22031;BME280;11179;52.106;21.024;2023-08-20T11:18:07;100652.13;;;35.65;32.92
22031;BME280;11179;52.106;21.024;2023-08-20T11:20:40;100689.13;;;35.79;32.78
22031;BME280;11179;52.106;21.024;2023-08-20T11:23:12;100659.16;;;35.53;33.12
22031;BME280;11179;52.106;21.024;2023-08-20T11:25:43;100663.78;;;35.40;33.30
22031;BME280;11179;52.106;21.024;2023-08-20T11:28:19;100690.22;;;35.44;33.38
22031;BME280;11179;52.106;21.024;2023-08-20T11:30:49;100679.38;;;35.28;33.30
22031;BME280;11179;52.106;21.024;2023-08-20T11:33:19;100675.72;;;35.24;33.10
22031;BME280;11179;52.106;21.024;2023-08-20T11:35:49;100686.72;;;35.26;33.00
22031;BME280;11179;52.106;21.024;2023-08-20T11:38:20;100646.97;;;34.90;33.58
22031;BME280;11179;52.106;21.024;2023-08-20T11:40:45;100698.97;;;35.23;33.67
22031;BME280;11179;52.106;21.024;2023-08-20T11:43:11;100690.81;;;35.25;34.30
22031;BME280;11179;52.106;21.024;2023-08-20T11:45:47;100699.28;;;35.35;34.07
22031;BME280;11179;52.106;21.024;2023-08-20T11:48:13;100686.25;;;35.31;33.71
22031;BME280;11179;52.106;21.024;2023-08-20T11:50:39;100696.09;;;35.26;33.88
22031;BME280;11179;52.106;21.024;2023-08-20T11:53:11;100692.44;;;35.22;34.27
22031;BME280;11179;52.106;21.024;2023-08-20T11:55:47;100692.06;;;35.17;34.70
22031;BME280;11179;52.106;21.024;2023-08-20T11:58:13;100690.47;;;35.08;34.46
22031;BME280;11179;52.106;21.024;2023-08-20T12:00:38;100670.66;;;34.87;34.16
22031;BME280;11179;52.106;21.024;2023-08-20T12:03:04;100676.38;;;34.87;34.50
22031;BME280;11179;52.106;21.024;2023-08-20T12:05:30;100676.75;;;34.89;34.55
22031;BME280;11179;52.106;21.024;2023-08-20T12:08:00;100679.16;;;34.94;34.64
22031;BME280;11179;52.106;21.024;2023-08-20T12:10:41;100650.78;;;34.73;35.06
22031;BME280;11179;52.106;21.024;2023-08-20T12:13:34;100633.31;;;34.57;34.23
22031;BME280;11179;52.106;21.024;2023-08-20T12:16:00;100624.38;;;34.51;34.28
22031;BME280;11179;52.106;21.024;2023-08-20T12:18:26;100672.72;;;34.80;34.32
22031;BME280;11179;52.106;21.024;2023-08-20T12:20:51;100675.59;;;34.80;34.21
22031;BME280;11179;52.106;21.024;2023-08-20T12:23:16;100680.06;;;34.81;34.67
22031;BME280;11179;52.106;21.024;2023-08-20T12:25:42;100680.94;;;34.74;35.21
22031;BME280;11179;52.106;21.024;2023-08-20T12:28:08;100681.00;;;34.53;35.35
22031;BME280;11179;52.106;21.024;2023-08-20T12:30:33;100680.69;;;34.26;35.10
22031;BME280;11179;52.106;21.024;2023-08-20T12:33:13;100663.66;;;33.97;35.42
22031;BME280;11179;52.106;21.024;2023-08-20T12:36:03;100619.41;;;33.50;36.10
22031;BME280;11179;52.106;21.024;2023-08-20T12:38:35;100639.31;;;33.61;35.68
22031;BME280;11179;52.106;21.024;2023-08-20T12:41:02;100627.50;;;33.69;35.90
22031;BME280;11179;52.106;21.024;2023-08-20T12:43:32;100617.72;;;33.74;36.06
22031;BME280;11179;52.106;21.024;2023-08-20T12:46:21;100626.72;;;33.76;35.94
22031;BME280;11179;52.106;21.024;2023-08-20T12:48:56;100629.16;;;33.78;35.42
22031;BME280;11179;52.106;21.024;2023-08-20T12:51:25;100616.09;;;33.69;35.25
22031;BME280;11179;52.106;21.024;2023-08-20T12:53:57;100690.56;;;33.93;34.67
22031;BME280;11179;52.106;21.024;2023-08-20T12:56:28;100644.59;;;33.62;34.82
22031;BME280;11179;52.106;21.024;2023-08-20T12:59:02;100641.34;;;33.60;35.70
22031;BME280;11179;52.106;21.024;2023-08-20T13:01:31;100639.31;;;33.64;35.73
22031;BME280;11179;52.106;21.024;2023-08-20T13:04:00;100655.97;;;33.84;35.74
22031;BME280;11179;52.106;21.024;2023-08-20T13:06:29;100651.53;;;33.76;35.56
22031;BME280;11179;52.106;21.024;2023-08-20T13:08:55;100675.91;;;33.84;35.77
22031;BME280;11179;52.106;21.024;2023-08-20T13:11:21;100668.16;;;33.73;36.22
22031;BME280;11179;52.106;21.024;2023-08-20T13:13:50;100666.53;;;33.69;35.82
22031;BME280;11179;52.106;21.024;2023-08-20T13:16:24;100664.53;;;33.48;36.20